Time;durP1;ratioP1;P1;durP2;ratioP2;P2;SDS_P1;SDS_P2;PMS_P1;PMS_P2;Temp;Humidity;BMP_temperature;BMP_pressure;BME280_temperature;BME280_humidity;BME280_pressure;Samples;Min_cycle;Max_cycle;Signal;HPM_P1;HPM_P2
2021/07/25 00:01:35;;;;;;;34.00;25.35;;;16.60;99.90;;;;;;4953631;28;20480;-70
2021/07/25 00:04:01;;;;;;;36.72;27.38;;;16.60;99.90;;;;;;4953545;29;20027;-70
2021/07/25 00:06:28;;;;;;;40.42;27.15;;;16.60;99.90;;;;;;4953131;29;20466;-69
2021/07/25 00:08:54;;;;;;;40.03;26.20;;;16.60;99.90;;;;;;4952413;29;20034;-69
2021/07/25 00:11:20;;;;;;;37.40;27.20;;;16.60;99.90;;;;;;4952986;29;20433;-69
2021/07/25 00:13:51;;;;;;;37.47;28.25;;;16.60;99.90;;;;;;4953875;28;20047;-70
2021/07/25 00:16:18;;;;;;;36.95;27.33;;;16.70;99.90;;;;;;4953204;29;20042;-70
2021/07/25 00:18:45;;;;;;;39.42;29.75;;;16.70;99.90;;;;;;4948914;29;20389;-69
2021/07/25 00:21:11;;;;;;;41.50;29.85;;;16.70;99.90;;;;;;4961334;28;20035;-69
2021/07/25 00:23:42;;;;;;;40.78;30.75;;;16.70;99.90;;;;;;4954351;28;20497;-70
2021/07/25 00:26:12;;;;;;;39.25;30.00;;;16.70;99.90;;;;;;4953138;29;20055;-69
2021/07/25 00:28:39;;;;;;;44.53;31.67;;;16.70;99.90;;;;;;4953220;28;20036;-69
2021/07/25 00:31:08;;;;;;;48.05;33.22;;;16.70;99.90;;;;;;4952073;29;20458;-70
2021/07/25 00:33:36;;;;;;;42.60;30.73;;;16.80;99.90;;;;;;4952626;29;20570;-69
2021/07/25 00:36:05;;;;;;;45.90;31.55;;;16.70;99.90;;;;;;4953085;29;20050;-70
2021/07/25 00:38:32;;;;;;;40.92;29.73;;;16.70;99.90;;;;;;4951602;29;20031;-70
2021/07/25 00:41:24;;;;;;;36.65;28.45;;;16.70;99.90;;;;;;4953088;28;20039;-70
2021/07/25 00:43:51;;;;;;;32.45;24.90;;;16.70;99.90;;;;;;4953348;28;20480;-70
2021/07/25 00:46:17;;;;;;;30.55;24.90;;;16.60;99.90;;;;;;4952626;29;20043;-69
2021/07/25 00:48:46;;;;;;;30.33;24.27;;;16.60;99.90;;;;;;4952137;28;20055;-70
2021/07/25 00:51:13;;;;;;;34.47;24.88;;;16.60;99.90;;;;;;4954001;28;20050;-69
2021/07/25 00:53:41;;;;;;;34.42;24.02;;;16.60;99.90;;;;;;4956989;29;20039;-70
2021/07/25 00:56:10;;;;;;;30.70;23.85;;;16.50;99.90;;;;;;4956938;29;20429;-70
2021/07/25 00:58:38;;;;;;;31.45;25.17;;;16.60;99.90;;;;;;4956421;29;20047;-70
2021/07/25 01:01:06;;;;;;;32.05;25.48;;;16.60;99.90;;;;;;4955914;29;20085;-71
2021/07/25 01:04:08;;;;;;;35.58;26.13;;;16.60;99.90;;;;;;4956371;28;20039;-73
2021/07/25 01:06:59;;;;;;;34.55;25.73;;;16.60;99.90;;;;;;4950274;29;20027;-70
2021/07/25 01:10:06;;;;;;;30.67;24.67;;;16.60;99.90;;;;;;4956322;29;20046;-72
2021/07/25 01:12:47;;;;;;;32.28;24.25;;;16.60;99.90;;;;;;4947992;28;20114;-70
2021/07/25 01:15:18;;;;;;;34.05;23.88;;;16.60;99.90;;;;;;4956709;29;20453;-70
2021/07/25 01:17:45;;;;;;;30.90;23.60;;;16.60;99.90;;;;;;4954998;28;20051;-70
2021/07/25 01:20:12;;;;;;;29.20;23.45;;;16.60;99.90;;;;;;4948365;29;20031;-70
2021/07/25 01:22:50;;;;;;;29.77;23.60;;;16.50;99.90;;;;;;4955692;29;20035;-70
2021/07/25 01:25:19;;;;;;;36.25;25.27;;;16.60;99.90;;;;;;4955721;28;20047;-73
2021/07/25 01:27:54;;;;;;;37.53;27.10;;;16.70;99.90;;;;;;4956134;29;20038;-71
2021/07/25 01:30:28;;;;;;;36.10;26.67;;;16.80;99.90;;;;;;4955977;29;20043;-70
2021/07/25 01:33:00;;;;;;;38.47;27.83;;;16.90;99.90;;;;;;4955103;29;20046;-70
2021/07/25 01:35:28;;;;;;;40.22;27.80;;;16.80;99.90;;;;;;4956061;28;20044;-70
2021/07/25 01:37:55;;;;;;;38.92;27.80;;;16.90;99.90;;;;;;4955999;29;20028;-70
2021/07/25 01:40:24;;;;;;;38.58;28.67;;;16.90;99.90;;;;;;4955334;29;20488;-70
2021/07/25 01:42:51;;;;;;;36.72;27.90;;;17.10;99.90;;;;;;4938593;28;20064;-70
2021/07/25 01:45:18;;;;;;;32.03;23.45;;;17.10;99.90;;;;;;4952206;29;20500;-71
2021/07/25 01:47:44;;;;;;;26.92;23.05;;;17.00;99.90;;;;;;4955933;29;20038;-70
2021/07/25 01:50:12;;;;;;;32.35;21.70;;;16.90;99.90;;;;;;4956166;28;20051;-70
2021/07/25 01:52:38;;;;;;;27.85;23.13;;;16.80;99.90;;;;;;4954555;29;20039;-71
2021/07/25 01:55:05;;;;;;;31.40;22.42;;;16.80;99.90;;;;;;4956438;29;20054;-73
2021/07/25 01:57:31;;;;;;;29.13;22.05;;;16.80;99.90;;;;;;4954355;28;20040;-71
2021/07/25 01:59:58;;;;;;;31.23;21.02;;;16.80;99.90;;;;;;4955592;29;20039;-70
2021/07/25 02:02:24;;;;;;;30.83;21.75;;;16.80;99.90;;;;;;4953641;28;20043;-68
2021/07/25 02:04:50;;;;;;;27.70;20.98;;;16.70;99.90;;;;;;4956405;29;20039;-68
2021/07/25 02:07:17;;;;;;;27.55;22.20;;;16.70;99.90;;;;;;4955331;29;20034;-69
2021/07/25 02:09:43;;;;;;;32.00;24.13;;;16.60;99.90;;;;;;4944347;28;20039;-69
2021/07/25 02:12:10;;;;;;;30.00;23.73;;;16.50;99.90;;;;;;4955527;29;20051;-69
2021/07/25 02:14:38;;;;;;;33.42;24.55;;;16.50;99.90;;;;;;4970350;28;20054;-69
2021/07/25 02:17:06;;;;;;;33.08;24.00;;;16.50;99.90;;;;;;4954445;29;20331;-70
2021/07/25 02:19:33;;;;;;;30.67;24.02;;;16.60;99.90;;;;;;4955121;29;20035;-70
2021/07/25 02:21:59;;;;;;;31.95;23.70;;;16.60;99.90;;;;;;4955695;28;20425;-69
2021/07/25 02:24:25;;;;;;;32.90;24.25;;;16.60;99.90;;;;;;4954807;28;20054;-70
2021/07/25 02:26:52;;;;;;;33.75;25.88;;;16.70;99.90;;;;;;4956215;29;20046;-68
2021/07/25 02:29:19;;;;;;;36.03;24.85;;;16.80;99.90;;;;;;4956277;29;20458;-70
2021/07/25 02:31:45;;;;;;;36.53;25.52;;;16.90;99.90;;;;;;4958619;29;20464;-70
2021/07/25 02:34:12;;;;;;;38.85;27.15;;;17.10;99.90;;;;;;4950873;29;20051;-70
2021/07/25 02:36:40;;;;;;;36.97;27.65;;;17.10;99.90;;;;;;4957135;29;20028;-70
2021/07/25 02:39:06;;;;;;;37.33;26.45;;;17.20;99.90;;;;;;4955396;29;20034;-70
2021/07/25 02:41:33;;;;;;;34.38;25.83;;;17.30;99.90;;;;;;4954676;29;20039;-70
2021/07/25 02:43:59;;;;;;;37.33;25.73;;;17.30;99.90;;;;;;4955077;29;20464;-70
2021/07/25 02:46:25;;;;;;;34.47;25.40;;;17.40;99.90;;;;;;4953508;29;20035;-70
2021/07/25 02:48:51;;;;;;;35.33;25.85;;;17.40;99.90;;;;;;4954984;29;20042;-70
2021/07/25 02:51:18;;;;;;;34.78;24.85;;;17.40;99.90;;;;;;4955078;28;20035;-70
2021/07/25 02:53:44;;;;;;;34.92;24.67;;;17.40;99.90;;;;;;4953491;29;20043;-70
2021/07/25 02:56:10;;;;;;;32.05;24.58;;;17.40;99.90;;;;;;4953564;29;20042;-70
2021/07/25 02:58:36;;;;;;;36.28;26.05;;;17.50;99.90;;;;;;4953805;29;20047;-71
2021/07/25 03:01:28;;;;;;;31.45;24.90;;;17.50;99.90;;;;;;4954626;28;20433;-71
2021/07/25 03:03:55;;;;;;;34.15;24.73;;;17.50;99.90;;;;;;4955231;28;20051;-70
2021/07/25 03:06:21;;;;;;;36.42;24.65;;;17.50;99.90;;;;;;4936263;29;20411;-70
2021/07/25 03:08:47;;;;;;;34.08;25.80;;;17.50;99.90;;;;;;4954548;28;20047;-70
2021/07/25 03:11:13;;;;;;;32.13;24.58;;;17.50;99.90;;;;;;4953191;29;20232;-70
2021/07/25 03:13:40;;;;;;;34.33;25.63;;;17.60;99.90;;;;;;4953880;28;20039;-70
2021/07/25 03:16:08;;;;;;;37.53;24.80;;;17.60;99.90;;;;;;4953947;28;20043;-70
2021/07/25 03:18:35;;;;;;;33.90;25.55;;;17.70;99.90;;;;;;4954157;28;20477;-70
2021/07/25 03:21:03;;;;;;;33.83;26.00;;;17.70;99.90;;;;;;4953407;28;20043;-70
2021/07/25 03:23:29;;;;;;;32.38;23.85;;;17.70;99.90;;;;;;4954321;28;20055;-70
2021/07/25 03:25:55;;;;;;;34.85;25.08;;;17.70;99.90;;;;;;4953076;29;20027;-70
2021/07/25 03:28:22;;;;;;;35.35;25.80;;;17.70;99.90;;;;;;4953479;29;20107;-70
2021/07/25 03:30:50;;;;;;;39.13;26.90;;;17.70;99.90;;;;;;4954257;29;20042;-70
2021/07/25 03:33:17;;;;;;;34.03;25.05;;;17.60;99.90;;;;;;4954004;29;20043;-70
2021/07/25 03:35:43;;;;;;;32.78;23.95;;;17.60;99.90;;;;;;4952574;29;20035;-70
2021/07/25 03:38:10;;;;;;;34.90;24.45;;;17.50;99.90;;;;;;4954101;29;20036;-70
2021/07/25 03:40:38;;;;;;;29.02;21.98;;;17.50;99.90;;;;;;4953599;29;20039;-72
2021/07/25 03:43:04;;;;;;;31.77;22.52;;;17.40;99.90;;;;;;4952522;29;20046;-70
2021/07/25 03:45:30;;;;;;;33.50;23.55;;;17.50;99.90;;;;;;4953500;29;20389;-70
2021/07/25 03:47:57;;;;;;;34.88;24.25;;;17.40;99.90;;;;;;4952345;29;20031;-70
2021/07/25 03:50:23;;;;;;;39.78;25.38;;;17.40;99.90;;;;;;4953384;29;20043;-70
2021/07/25 03:52:49;;;;;;;32.38;24.27;;;17.40;99.90;;;;;;4954639;29;20042;-70
2021/07/25 03:55:18;;;;;;;31.52;23.65;;;17.50;99.90;;;;;;4952663;29;20031;-70
2021/07/25 03:57:45;;;;;;;25.90;21.40;;;17.40;99.90;;;;;;4952964;29;20477;-70
2021/07/25 04:00:12;;;;;;;31.15;22.27;;;17.40;99.90;;;;;;4952436;29;20031;-70
2021/07/25 04:02:38;;;;;;;36.13;22.60;;;17.40;99.90;;;;;;4953085;29;20039;-69
2021/07/25 04:05:05;;;;;;;35.40;24.98;;;17.30;99.90;;;;;;4953631;29;20417;-70
2021/07/25 04:07:31;;;;;;;29.67;22.30;;;17.30;99.90;;;;;;4938059;29;20059;-69
2021/07/25 04:09:57;;;;;;;28.58;22.02;;;17.40;99.90;;;;;;4953423;28;20064;-70
2021/07/25 04:12:24;;;;;;;31.52;22.92;;;17.40;99.90;;;;;;4951864;29;20034;-71
2021/07/25 04:14:50;;;;;;;37.08;24.58;;;17.30;99.90;;;;;;4935298;29;20038;-70
2021/07/25 04:17:16;;;;;;;35.65;25.05;;;17.30;99.90;;;;;;4952531;29;20058;-70
2021/07/25 04:19:42;;;;;;;36.13;24.50;;;17.30;99.90;;;;;;4951902;29;20027;-70
2021/07/25 04:22:08;;;;;;;28.27;22.17;;;17.40;99.90;;;;;;4953428;29;20031;-70
2021/07/25 04:24:34;;;;;;;22.70;19.02;;;17.40;99.90;;;;;;4952029;28;20066;-71
2021/07/25 04:27:01;;;;;;;24.70;18.75;;;17.30;99.90;;;;;;4952073;28;20035;-71
2021/07/25 04:29:27;;;;;;;23.42;19.42;;;17.30;99.90;;;;;;4952428;29;20057;-70
2021/07/25 04:31:54;;;;;;;26.23;20.92;;;17.30;99.90;;;;;;4968075;28;20468;-71
2021/07/25 04:34:21;;;;;;;29.50;20.60;;;17.30;99.90;;;;;;4952755;29;20461;-71
2021/07/25 04:36:47;;;;;;;21.90;17.25;;;17.40;99.90;;;;;;4952138;29;20039;-71
2021/07/25 04:39:14;;;;;;;21.20;15.25;;;17.50;99.90;;;;;;4952899;29;20370;-71
2021/07/25 04:41:45;;;;;;;16.52;13.70;;;17.60;99.90;;;;;;4952829;29;20027;-71
2021/07/25 04:44:32;;;;;;;13.45;11.48;;;17.90;99.90;;;;;;4953306;28;20055;-71
2021/07/25 04:47:03;;;;;;;11.05;9.85;;;18.40;99.90;;;;;;4935305;29;20043;-71
2021/07/25 04:50:06;;;;;;;10.13;8.63;;;19.00;99.90;;;;;;4940959;28;20493;-71
2021/07/25 04:52:39;;;;;;;11.10;8.48;;;19.20;99.90;;;;;;4954091;28;20047;-71
2021/07/25 04:55:07;;;;;;;12.20;9.00;;;19.30;99.90;;;;;;4953034;29;20117;-71
2021/07/25 04:57:42;;;;;;;10.88;9.43;;;19.10;99.90;;;;;;4952408;29;20035;-70
2021/07/25 05:00:15;;;;;;;15.20;10.13;;;19.00;99.90;;;;;;4952911;29;20046;-70
2021/07/25 05:02:43;;;;;;;10.68;9.57;;;18.80;99.90;;;;;;4952181;29;20031;-71
2021/07/25 05:05:10;;;;;;;11.38;10.27;;;19.20;99.90;;;;;;4953197;29;20389;-71
2021/07/25 05:07:41;;;;;;;14.82;13.25;;;19.60;99.90;;;;;;4951225;28;20046;-71
2021/07/25 05:10:09;;;;;;;14.82;13.27;;;20.10;99.90;;;;;;4953123;29;20038;-71
2021/07/25 05:13:03;;;;;;;14.60;12.60;;;19.90;99.90;;;;;;4950987;29;20043;-71
2021/07/25 05:15:34;;;;;;;12.60;11.13;;;19.60;99.90;;;;;;4953359;28;20054;-71
2021/07/25 05:18:11;;;;;;;13.80;12.23;;;19.20;99.90;;;;;;4952890;29;20042;-71
2021/07/25 05:20:54;;;;;;;15.75;13.75;;;18.80;99.90;;;;;;4950979;29;20094;-71
2021/07/25 05:23:31;;;;;;;12.63;11.30;;;18.70;99.90;;;;;;4951869;29;20036;-71
2021/07/25 05:25:58;;;;;;;10.73;9.60;;;18.80;99.90;;;;;;4953375;28;20043;-71
2021/07/25 05:28:26;;;;;;;11.20;8.93;;;19.00;99.90;;;;;;4952529;29;20035;-72
2021/07/25 05:30:56;;;;;;;11.05;8.40;;;19.10;99.90;;;;;;4952569;29;20043;-71
2021/07/25 05:33:23;;;;;;;8.77;7.45;;;19.20;99.90;;;;;;4951407;29;20446;-72
2021/07/25 05:35:50;;;;;;;10.13;8.32;;;19.40;99.90;;;;;;4953403;28;20047;-71
2021/07/25 05:38:17;;;;;;;8.73;7.47;;;19.40;99.90;;;;;;4953555;28;20473;-71
2021/07/25 05:40:44;;;;;;;12.80;8.25;;;19.40;99.90;;;;;;4954935;28;20154;-71
2021/07/25 05:43:11;;;;;;;10.20;8.77;;;19.30;99.90;;;;;;4938022;29;20046;-71
2021/07/25 05:45:37;;;;;;;11.07;8.85;;;19.30;99.90;;;;;;4956687;29;20031;-71
2021/07/25 05:48:04;;;;;;;10.48;9.35;;;19.30;99.90;;;;;;4954947;28;20050;-71
2021/07/25 05:50:30;;;;;;;10.60;8.95;;;19.40;99.90;;;;;;4954263;29;20488;-70
2021/07/25 05:52:58;;;;;;;10.70;9.07;;;19.70;99.90;;;;;;4952293;29;20048;-70
2021/07/25 05:55:29;;;;;;;10.45;8.55;;;20.80;99.90;;;;;;4939801;29;20394;-71
2021/07/25 05:57:56;;;;;;;7.85;7.07;;;21.90;99.90;;;;;;4955560;29;20551;-71
2021/07/25 06:00:23;;;;;;;8.18;7.22;;;22.00;99.90;;;;;;4940231;29;20032;-73
2021/07/25 06:02:53;;;;;;;8.10;6.05;;;21.80;99.90;;;;;;4953878;29;20042;-71
2021/07/25 06:05:20;;;;;;;6.95;6.18;;;21.90;99.90;;;;;;4954612;29;20039;-71
2021/07/25 06:07:46;;;;;;;7.72;6.15;;;23.40;99.90;;;;;;4953287;29;20043;-71
2021/07/25 06:10:13;;;;;;;6.43;5.82;;;24.20;99.60;;;;;;4955474;28;20050;-71
2021/07/25 06:12:40;;;;;;;5.78;5.20;;;24.60;99.70;;;;;;4955342;28;20088;-71
2021/07/25 06:15:07;;;;;;;7.82;5.07;;;25.20;96.30;;;;;;4955724;28;20471;-71
2021/07/25 06:17:33;;;;;;;6.43;4.93;;;25.70;95.00;;;;;;4955264;29;20051;-71
2021/07/25 06:19:59;;;;;;;4.95;4.45;;;26.00;91.60;;;;;;4954102;29;20035;-71
2021/07/25 06:22:35;;;;;;;5.25;4.75;;;25.50;91.20;;;;;;4956143;29;20039;-71
2021/07/25 06:25:01;;;;;;;4.72;4.10;;;25.50;91.50;;;;;;4955426;29;20054;-71
2021/07/25 06:27:27;;;;;;;5.28;4.75;;;25.50;90.10;;;;;;4954824;29;20031;-69
2021/07/25 06:29:53;;;;;;;5.53;4.50;;;25.10;92.10;;;;;;4955569;29;20027;-69
2021/07/25 06:32:19;;;;;;;4.25;3.85;;;25.30;93.00;;;;;;4955381;29;20043;-70
2021/07/25 06:34:45;;;;;;;5.07;4.07;;;26.20;90.10;;;;;;4954663;28;20058;-70
2021/07/25 06:37:11;;;;;;;4.93;4.22;;;25.70;88.20;;;;;;4950801;29;20027;-71
2021/07/25 06:39:38;;;;;;;6.78;4.60;;;25.70;86.40;;;;;;4942396;28;20054;-70
2021/07/25 06:42:04;;;;;;;5.22;4.57;;;24.80;88.20;;;;;;4949718;28;20039;-69
2021/07/25 06:44:30;;;;;;;5.13;4.60;;;24.60;91.60;;;;;;4951302;29;20042;-71
2021/07/25 06:46:56;;;;;;;4.53;3.83;;;25.50;89.30;;;;;;4953248;29;20068;-70
2021/07/25 06:49:23;;;;;;;8.43;4.55;;;25.50;85.80;;;;;;4954944;28;20047;-70
2021/07/25 06:51:49;;;;;;;8.85;4.65;;;24.40;90.30;;;;;;4954028;29;20381;-71
2021/07/25 06:54:15;;;;;;;4.78;4.38;;;26.20;82.50;;;;;;4953208;28;20051;-70
2021/07/25 06:56:41;;;;;;;6.53;4.13;;;27.70;77.90;;;;;;4953155;29;20028;-71
2021/07/25 06:59:08;;;;;;;7.40;5.40;;;27.90;77.00;;;;;;4954636;29;20043;-71
2021/07/25 07:01:34;;;;;;;4.93;4.35;;;28.10;75.40;;;;;;4954343;29;20039;-71
2021/07/25 07:04:00;;;;;;;5.88;5.28;;;27.30;76.90;;;;;;4957678;29;20027;-70
2021/07/25 07:06:26;;;;;;;5.97;4.95;;;26.30;80.00;;;;;;4955494;29;20492;-71
2021/07/25 07:08:52;;;;;;;4.63;4.15;;;25.40;81.40;;;;;;4954795;29;20039;-71
2021/07/25 07:11:18;;;;;;;4.80;4.15;;;24.60;84.30;;;;;;4954504;29;20031;-71
2021/07/25 07:13:45;;;;;;;5.05;4.45;;;24.20;86.50;;;;;;4968964;28;20059;-71
2021/07/25 07:16:11;;;;;;;5.78;4.55;;;23.50;87.30;;;;;;4954299;29;20032;-71
2021/07/25 07:18:37;;;;;;;8.77;5.22;;;23.50;88.40;;;;;;4953829;28;20035;-71
2021/07/25 07:21:03;;;;;;;5.43;4.25;;;23.50;89.00;;;;;;4955552;28;20381;-71
2021/07/25 07:23:29;;;;;;;5.75;4.55;;;23.40;91.20;;;;;;4954303;28;20047;-73
2021/07/25 07:25:56;;;;;;;5.10;4.60;;;24.10;88.10;;;;;;4954687;28;20377;-71
2021/07/25 07:28:22;;;;;;;5.85;4.40;;;25.10;87.20;;;;;;4952529;29;20038;-72
2021/07/25 07:30:48;;;;;;;6.88;5.35;;;25.40;81.30;;;;;;4957189;28;20042;-72
2021/07/25 07:33:16;;;;;;;4.95;4.45;;;25.50;83.70;;;;;;4954478;28;20054;-72
2021/07/25 07:35:43;;;;;;;7.60;4.47;;;26.40;80.50;;;;;;4954028;28;20047;-72
2021/07/25 07:38:11;;;;;;;5.18;4.43;;;26.20;80.90;;;;;;4953409;29;20480;-72
2021/07/25 07:40:39;;;;;;;5.28;4.50;;;26.20;82.10;;;;;;4958487;28;20034;-72
2021/07/25 07:43:08;;;;;;;5.07;4.57;;;28.00;76.80;;;;;;4961658;28;20030;-72
2021/07/25 07:45:37;;;;;;;5.13;4.63;;;29.10;73.40;;;;;;4969432;28;20041;-72
2021/07/25 07:48:04;;;;;;;5.30;4.72;;;29.40;70.40;;;;;;4954158;28;20366;-72
2021/07/25 07:50:30;;;;;;;5.78;4.38;;;29.80;67.90;;;;;;4952596;29;20047;-72
2021/07/25 07:52:57;;;;;;;3.80;3.40;;;30.00;66.50;;;;;;4953888;29;20039;-73
2021/07/25 07:55:24;;;;;;;6.78;4.00;;;28.60;65.90;;;;;;4954044;28;20051;-74
2021/07/25 07:57:50;;;;;;;5.10;3.80;;;27.70;68.10;;;;;;4953332;29;20050;-73
2021/07/25 08:00:17;;;;;;;4.50;4.00;;;26.70;70.60;;;;;;4958443;28;20035;-74
2021/07/25 08:02:43;;;;;;;5.45;4.45;;;26.30;71.90;;;;;;4959693;28;20031;-73
2021/07/25 08:05:10;;;;;;;4.97;4.10;;;26.20;72.40;;;;;;4964267;28;20031;-73
2021/07/25 08:07:37;;;;;;;4.80;4.22;;;27.20;72.50;;;;;;4961313;28;20042;-73
2021/07/25 08:10:07;;;;;;;8.15;4.47;;;27.00;71.70;;;;;;4945224;28;20038;-75
2021/07/25 08:12:35;;;;;;;5.40;4.13;;;26.80;71.80;;;;;;4958789;28;20039;-75
2021/07/25 08:15:02;;;;;;;4.60;4.20;;;28.20;71.80;;;;;;4945321;28;20052;-74
2021/07/25 08:17:28;;;;;;;5.15;4.13;;;29.10;67.70;;;;;;4935444;28;20490;-73
2021/07/25 08:19:54;;;;;;;5.65;3.55;;;27.50;68.70;;;;;;4937984;29;20038;-73
2021/07/25 08:22:20;;;;;;;4.88;4.07;;;26.50;72.50;;;;;;4953816;28;20051;-73
2021/07/25 08:24:47;;;;;;;4.97;4.13;;;27.30;71.50;;;;;;4952873;29;20392;-73
2021/07/25 08:27:13;;;;;;;7.95;4.95;;;28.40;68.80;;;;;;4949492;29;20058;-73
2021/07/25 08:29:41;;;;;;;4.93;4.43;;;27.20;69.70;;;;;;4949012;29;20023;-73
2021/07/25 08:32:10;;;;;;;4.28;3.88;;;26.40;72.70;;;;;;4953375;29;20381;-73
2021/07/25 08:34:36;;;;;;;6.55;4.35;;;26.90;72.70;;;;;;4953112;29;20051;-73
2021/07/25 08:37:03;;;;;;;6.05;4.22;;;27.40;71.20;;;;;;4953681;29;20035;-73
2021/07/25 08:39:29;;;;;;;6.97;4.75;;;27.10;70.70;;;;;;4946407;29;20030;-73
2021/07/25 08:42:03;;;;;;;5.03;3.90;;;27.90;68.50;;;;;;4942713;28;20070;-73
2021/07/25 08:44:43;;;;;;;4.47;3.47;;;28.10;69.00;;;;;;4935064;29;20032;-74
2021/07/25 08:47:33;;;;;;;3.75;3.33;;;28.00;69.20;;;;;;4949551;28;20043;-72
2021/07/25 08:50:10;;;;;;;4.85;4.35;;;28.30;66.30;;;;;;4960007;28;20041;-72
2021/07/25 08:52:42;;;;;;;8.25;4.80;;;26.90;68.50;;;;;;4960943;28;20504;-72
2021/07/25 08:55:14;;;;;;;5.30;4.55;;;26.30;71.00;;;;;;4951963;29;20058;-72
2021/07/25 08:57:43;;;;;;;6.35;4.38;;;26.10;74.30;;;;;;4960161;28;20027;-72
2021/07/25 09:00:13;;;;;;;7.85;4.15;;;26.50;70.70;;;;;;4962678;28;20032;-73
2021/07/25 09:02:39;;;;;;;;;;;25.80;74.30;;;;;;4960652;28;20473;-73
2021/07/25 09:05:07;;;;;;;6.00;3.65;;;26.50;73.40;;;;;;4952687;28;19910;-75
2021/07/25 09:07:34;;;;;;;5.57;3.47;;;27.00;71.10;;;;;;4954341;28;20051;-74
2021/07/25 09:10:07;;;;;;;7.40;3.72;;;27.40;70.30;;;;;;4952979;29;20466;-73
2021/07/25 09:12:34;;;;;;;6.93;3.78;;;27.00;68.50;;;;;;4953066;28;20027;-72
2021/07/25 09:15:16;;;;;;;5.75;3.67;;;26.50;70.30;;;;;;4956442;29;20063;-73
2021/07/25 09:17:42;;;;;;;5.72;3.97;;;26.40;70.00;;;;;;4956357;29;20031;-74
2021/07/25 09:20:22;;;;;;;5.90;3.60;;;26.20;72.10;;;;;;4956087;29;20047;-74
2021/07/25 09:23:00;;;;;;;6.80;4.32;;;26.10;72.20;;;;;;4951672;28;20027;-74
2021/07/25 09:25:54;;;;;;;5.60;4.35;;;26.00;73.80;;;;;;4955228;28;20368;-74
2021/07/25 09:28:32;;;;;;;5.95;4.13;;;26.70;71.00;;;;;;4967454;28;20035;-74
2021/07/25 09:31:18;;;;;;;8.95;4.03;;;27.30;72.80;;;;;;4957277;28;20043;-75
2021/07/25 09:33:53;;;;;;;5.65;3.50;;;28.00;66.10;;;;;;4956048;29;20473;-74
2021/07/25 09:36:31;;;;;;;3.88;3.47;;;27.60;67.20;;;;;;4957858;28;20043;-75
2021/07/25 09:39:06;;;;;;;4.38;3.30;;;28.30;65.30;;;;;;4938706;29;20374;-74
2021/07/25 09:41:36;;;;;;;8.25;4.28;;;28.20;64.90;;;;;;4964548;28;20044;-75
2021/07/25 09:44:12;;;;;;;3.83;3.13;;;28.60;63.60;;;;;;4938755;29;20044;-75
2021/07/25 09:46:43;;;;;;;3.70;3.20;;;28.60;64.40;;;;;;4953186;29;20038;-75
2021/07/25 09:49:09;;;;;;;7.60;3.47;;;28.90;64.70;;;;;;4955050;29;20058;-75
2021/07/25 09:51:35;;;;;;;4.80;3.80;;;28.70;65.00;;;;;;4955825;29;20035;-74
2021/07/25 09:54:06;;;;;;;4.28;3.72;;;28.60;64.80;;;;;;4956264;29;20043;-73
2021/07/25 09:56:32;;;;;;;4.85;3.00;;;28.40;64.40;;;;;;4954228;28;20051;-73
2021/07/25 09:58:59;;;;;;;6.25;3.60;;;28.50;66.20;;;;;;4955567;29;20400;-73
2021/07/25 10:01:35;;;;;;;5.43;3.45;;;28.90;62.60;;;;;;4957919;28;20043;-72
2021/07/25 10:04:17;;;;;;;4.78;3.30;;;27.10;64.70;;;;;;4956545;28;20047;-73
2021/07/25 10:06:48;;;;;;;4.28;3.50;;;27.10;64.90;;;;;;4955569;29;20039;-73
2021/07/25 10:09:16;;;;;;;4.30;3.55;;;27.90;63.40;;;;;;4944620;28;20043;-73
2021/07/25 10:11:47;;;;;;;4.03;3.53;;;28.80;62.80;;;;;;4954294;29;20027;-73
2021/07/25 10:14:17;;;;;;;3.97;2.78;;;28.90;61.50;;;;;;4955665;29;20339;-73
2021/07/25 10:16:45;;;;;;;5.65;3.28;;;28.30;59.60;;;;;;4954236;29;20031;-73
2021/07/25 10:19:11;;;;;;;5.18;3.60;;;27.80;63.40;;;;;;4955669;28;20416;-74
2021/07/25 10:21:38;;;;;;;4.25;3.03;;;27.70;63.00;;;;;;4955314;29;20377;-73
2021/07/25 10:24:12;;;;;;;3.38;2.55;;;27.10;61.70;;;;;;4954893;28;20042;-73
2021/07/25 10:26:39;;;;;;;4.38;3.00;;;26.60;62.40;;;;;;4955469;29;20023;-72
2021/07/25 10:29:07;;;;;;;4.05;2.65;;;26.30;62.10;;;;;;4959181;29;20042;-74
2021/07/25 10:31:33;;;;;;;7.20;3.00;;;26.10;63.30;;;;;;4958938;29;20035;-72
2021/07/25 10:34:01;;;;;;;3.78;2.88;;;25.50;64.60;;;;;;4944494;28;20486;-73
2021/07/25 10:36:31;;;;;;;5.53;3.67;;;25.60;66.40;;;;;;4953559;29;20393;-73
2021/07/25 10:38:58;;;;;;;3.78;2.95;;;26.30;64.00;;;;;;4955321;29;20038;-74
2021/07/25 10:41:26;;;;;;;3.90;2.75;;;26.70;61.80;;;;;;4955407;29;20054;-74
2021/07/25 10:43:53;;;;;;;4.10;3.42;;;27.10;62.50;;;;;;4962177;28;20043;-74
2021/07/25 10:46:22;;;;;;;3.53;3.00;;;27.60;63.40;;;;;;4954850;28;20417;-74
2021/07/25 10:49:00;;;;;;;4.80;2.92;;;27.70;59.90;;;;;;4936355;29;20040;-73
2021/07/25 10:51:27;;;;;;;5.45;3.13;;;27.30;60.00;;;;;;4966290;28;20039;-73
2021/07/25 10:53:55;;;;;;;4.47;2.97;;;26.70;59.70;;;;;;4959574;28;20035;-74
2021/07/25 10:56:55;;;;;;;3.78;3.17;;;26.20;60.60;;;;;;4954809;28;20047;-73
2021/07/25 10:59:52;;;;;;;4.95;3.28;;;26.30;61.50;;;;;;4959877;28;20441;-73
2021/07/25 11:02:21;;;;;;;6.72;3.33;;;26.40;62.30;;;;;;4943088;28;20386;-74
2021/07/25 11:04:50;;;;;;;3.90;3.33;;;26.50;64.00;;;;;;4961100;28;20038;-74
2021/07/25 11:07:22;;;;;;;6.50;3.00;;;26.60;64.30;;;;;;4961279;28;20023;-74
2021/07/25 11:09:58;;;;;;;4.60;3.20;;;27.10;63.20;;;;;;4953198;29;20373;-75
2021/07/25 11:12:26;;;;;;;3.97;3.42;;;27.40;58.50;;;;;;4959448;28;20035;-74
2021/07/25 11:15:03;;;;;;;5.57;3.00;;;27.30;61.60;;;;;;4954236;29;20047;-74
2021/07/25 11:17:45;;;;;;;3.67;2.83;;;26.90;60.40;;;;;;4965862;28;20023;-74
2021/07/25 11:20:40;;;;;;;5.85;3.20;;;26.60;61.60;;;;;;4955403;28;20035;-74
2021/07/25 11:23:18;;;;;;;3.95;3.13;;;26.50;63.80;;;;;;4962954;28;20410;-74
2021/07/25 11:25:45;;;;;;;4.72;3.22;;;26.40;60.70;;;;;;4952511;28;20051;-75
2021/07/25 11:28:42;;;;;;;4.75;3.17;;;26.30;60.40;;;;;;4953636;28;20034;-74
2021/07/25 11:31:13;;;;;;;7.20;3.10;;;26.10;60.60;;;;;;4938181;29;20386;-75
2021/07/25 11:33:45;;;;;;;5.18;2.80;;;26.50;60.50;;;;;;4956191;28;20046;-74
2021/07/25 11:36:17;;;;;;;3.35;2.85;;;26.60;60.60;;;;;;4955775;28;20048;-73
2021/07/25 11:38:49;;;;;;;4.20;3.00;;;26.50;60.10;;;;;;4941127;29;20038;-74
2021/07/25 11:41:21;;;;;;;6.63;3.13;;;26.50;60.60;;;;;;4946484;29;20028;-75
2021/07/25 11:43:58;;;;;;;4.40;3.00;;;26.50;61.30;;;;;;4953715;29;20039;-74
2021/07/25 11:46:40;;;;;;;6.15;3.22;;;27.00;58.60;;;;;;4953620;29;20039;-76
2021/07/25 11:49:07;;;;;;;4.78;3.22;;;27.20;58.60;;;;;;4966823;28;20460;-76
2021/07/25 11:51:34;;;;;;;5.05;2.70;;;27.90;58.70;;;;;;4948936;28;20031;-76
2021/07/25 11:54:01;;;;;;;3.80;2.63;;;28.40;56.00;;;;;;4953742;29;20362;-76
2021/07/25 11:56:28;;;;;;;3.80;2.72;;;28.60;56.00;;;;;;4954106;28;20047;-75
2021/07/25 11:58:59;;;;;;;5.20;3.15;;;28.30;56.80;;;;;;4955968;28;20051;-76
2021/07/25 12:01:25;;;;;;;5.22;2.50;;;27.80;56.60;;;;;;4968427;28;20047;-73
2021/07/25 12:03:52;;;;;;;4.82;2.75;;;28.00;54.70;;;;;;4953487;29;20640;-74
2021/07/25 12:06:18;;;;;;;5.40;3.40;;;27.30;55.80;;;;;;4952924;29;20067;-73
2021/07/25 12:09:05;;;;;;;4.32;2.67;;;26.90;57.80;;;;;;4953309;29;20046;-74
2021/07/25 12:11:33;;;;;;;6.47;3.53;;;26.80;56.80;;;;;;4953787;29;20031;-73
2021/07/25 12:14:00;;;;;;;4.65;3.00;;;27.20;56.30;;;;;;4946212;29;20039;-75
2021/07/25 12:16:42;;;;;;;3.40;2.55;;;26.60;56.80;;;;;;4942955;28;20050;-74
2021/07/25 12:19:13;;;;;;;3.90;2.67;;;26.60;56.70;;;;;;4952288;28;20401;-75
2021/07/25 12:21:39;;;;;;;5.93;2.80;;;27.20;57.90;;;;;;4967185;28;20046;-74
2021/07/25 12:24:31;;;;;;;3.13;2.30;;;27.80;57.60;;;;;;4952331;29;20031;-73
2021/07/25 12:26:58;;;;;;;3.83;2.75;;;28.50;56.20;;;;;;4952160;29;20473;-74
2021/07/25 12:29:42;;;;;;;2.83;2.45;;;28.80;54.40;;;;;;4943412;29;20031;-74
2021/07/25 12:32:33;;;;;;;4.60;2.95;;;28.30;53.90;;;;;;4947111;29;20040;-74
2021/07/25 12:35:08;;;;;;;3.50;2.67;;;27.80;55.20;;;;;;4953480;28;20062;-73
2021/07/25 12:37:41;;;;;;;3.13;2.72;;;28.00;56.20;;;;;;4952920;29;20039;-74
2021/07/25 12:40:12;;;;;;;4.90;2.67;;;28.60;54.90;;;;;;4953488;29;20461;-73
2021/07/25 12:43:05;;;;;;;4.00;2.75;;;28.90;54.40;;;;;;4949891;29;20488;-74
2021/07/25 12:45:35;;;;;;;3.20;2.47;;;29.10;55.20;;;;;;4936741;29;20051;-73
2021/07/25 12:48:27;;;;;;;4.40;2.65;;;28.30;54.10;;;;;;4957650;28;20042;-74
2021/07/25 12:53:39;;;;;;;3.03;2.45;;;27.90;55.90;;;;;;4957938;28;20034;-75
2021/07/25 12:56:13;;;;;;;6.45;2.80;;;28.00;54.10;;;;;;4965980;28;20062;-74